createdAt,value
2018-11-20T00:00:46.733Z,11.40
2018-11-20T00:01:46.723Z,11.00
2018-11-20T00:02:46.712Z,12.70
2018-11-20T00:03:46.700Z,10.40
2018-11-20T00:04:46.704Z,10.60
2018-11-20T00:05:46.679Z,10.60
2018-11-20T00:06:46.669Z,13.20
2018-11-20T00:07:46.657Z,12.20
2018-11-20T00:08:46.650Z,11.50
2018-11-20T00:09:46.651Z,12.30
2018-11-20T00:10:46.625Z,11.30
2018-11-20T00:11:46.629Z,11.60
2018-11-20T00:12:46.604Z,11.80
2018-11-20T00:13:46.593Z,11.40
2018-11-20T00:14:46.595Z,11.90
2018-11-20T00:15:46.573Z,11.70
2018-11-20T00:16:46.561Z,12.20
2018-11-20T00:17:46.550Z,10.50
2018-11-20T00:18:46.539Z,12.10
2018-11-20T00:19:46.555Z,10.80
2018-11-20T00:20:46.517Z,11.40
2018-11-20T00:21:46.507Z,11.50
2018-11-20T00:22:46.496Z,11.10
2018-11-20T00:23:46.485Z,11.80
2018-11-20T00:24:46.477Z,10.60
2018-11-20T00:25:46.477Z,11.10
2018-11-20T00:26:46.452Z,14.40
2018-11-20T00:27:46.441Z,11.50
2018-11-20T00:28:46.431Z,11.30
2018-11-20T00:29:46.420Z,11.70
2018-11-20T00:30:46.424Z,11.90
2018-11-20T00:31:46.398Z,11.50
2018-11-20T00:32:46.402Z,11.50
2018-11-20T00:33:46.376Z,12.00
2018-11-20T00:34:46.379Z,11.20
2018-11-20T00:35:46.355Z,12.10
2018-11-20T00:36:46.344Z,11.80
2018-11-20T00:37:46.334Z,12.40
2018-11-20T00:38:46.336Z,11.00
2018-11-20T00:39:46.312Z,10.20
2018-11-20T00:40:46.340Z,10.10
2018-11-20T00:41:46.290Z,10.40
2018-11-20T00:42:46.280Z,10.40
2018-11-20T00:43:46.268Z,10.30
2018-11-20T00:44:46.258Z,10.70
2018-11-20T00:45:46.246Z,10.30
2018-11-20T00:46:46.252Z,10.40
2018-11-20T00:47:46.225Z,10.90
2018-11-20T00:48:46.214Z,9.90
2018-11-20T00:49:46.202Z,10.40
2018-11-20T00:50:46.195Z,9.20
2018-11-20T00:51:46.196Z,10.70
2018-11-20T00:52:46.171Z,10.30
2018-11-20T00:53:46.160Z,11.20
2018-11-20T00:54:46.149Z,10.60
2018-11-20T00:55:46.171Z,9.00
2018-11-20T00:56:46.127Z,9.70
2018-11-20T00:57:46.116Z,9.80
2018-11-20T00:58:46.117Z,11.30
2018-11-20T00:59:46.095Z,10.30
2018-11-20T01:00:46.084Z,10.50
2018-11-20T01:01:46.103Z,10.90
2018-11-20T01:02:46.065Z,11.80
2018-11-20T01:03:47.386Z,11.30
2018-11-20T01:04:46.043Z,10.70
2018-11-20T01:05:46.029Z,11.90
2018-11-20T01:06:46.019Z,10.00
2018-11-20T01:07:46.022Z,10.50
2018-11-20T01:08:45.997Z,10.80
2018-11-20T01:09:45.987Z,8.00
2018-11-20T01:10:45.978Z,9.60
2018-11-20T01:11:45.965Z,11.90
2018-11-20T01:12:45.981Z,10.80
2018-11-20T01:13:45.945Z,11.40
2018-11-20T01:14:46.116Z,11.20
2018-11-20T01:15:45.922Z,10.60
2018-11-20T01:16:45.911Z,11.10
2018-11-20T01:17:45.900Z,11.10
2018-11-20T01:18:45.902Z,10.50
2018-11-20T01:19:45.879Z,9.20
2018-11-20T01:20:45.868Z,10.80
2018-11-20T01:21:45.859Z,10.90
2018-11-20T01:22:45.845Z,9.80
2018-11-20T01:23:45.874Z,10.90
2018-11-20T01:24:45.824Z,11.20
2018-11-20T01:25:45.813Z,10.90
2018-11-20T01:26:45.811Z,11.10
2018-11-20T01:27:45.791Z,9.50
2018-11-20T01:28:45.782Z,10.20
2018-11-20T01:29:45.787Z,10.40
2018-11-20T01:30:45.759Z,11.50
2018-11-20T01:31:45.748Z,9.40
2018-11-20T01:32:45.738Z,10.80
2018-11-20T01:33:45.777Z,10.60
2018-11-20T01:34:45.718Z,11.10
2018-11-20T01:35:45.705Z,10.20
2018-11-20T01:36:45.695Z,10.10
2018-11-20T01:37:45.683Z,8.90
2018-11-20T01:38:45.672Z,10.60
2018-11-20T01:39:45.676Z,11.60
2018-11-20T01:40:45.652Z,11.00
2018-11-20T01:41:45.647Z,10.60
2018-11-20T01:42:45.631Z,10.70
2018-11-20T01:43:45.620Z,10.50
2018-11-20T01:44:45.638Z,9.80
2018-11-20T01:45:45.598Z,10.30
2018-11-20T01:46:45.587Z,9.80
2018-11-20T01:47:45.577Z,10.30
2018-11-20T01:48:45.575Z,10.70
2018-11-20T01:49:45.555Z,11.20
2018-11-20T01:50:45.557Z,11.40
2018-11-20T01:51:45.549Z,10.80
2018-11-20T01:52:45.523Z,10.50
2018-11-20T01:53:45.511Z,10.00
2018-11-20T01:54:45.501Z,12.00
2018-11-20T01:55:45.490Z,11.60
2018-11-20T01:56:45.494Z,11.10
2018-11-20T01:57:45.469Z,10.90
2018-11-20T01:58:45.458Z,10.10
2018-11-20T01:59:45.446Z,10.90
2018-11-20T02:00:45.436Z,10.50
2018-11-20T02:01:45.440Z,10.90
2018-11-20T02:02:45.415Z,10.70
2018-11-20T02:03:45.404Z,10.90
2018-11-20T02:04:45.392Z,10.80
2018-11-20T02:05:45.382Z,9.20
2018-11-20T02:06:45.384Z,10.10
2018-11-20T02:07:45.375Z,10.70
2018-11-20T02:08:45.350Z,9.70
2018-11-20T02:09:45.339Z,12.60
2018-11-20T02:10:45.327Z,9.90
2018-11-20T02:11:45.317Z,11.40
2018-11-20T02:12:45.321Z,11.10
2018-11-20T02:13:45.296Z,9.80
2018-11-20T02:14:45.298Z,9.20
2018-11-20T02:15:45.274Z,10.60
2018-11-20T02:16:45.265Z,10.30
2018-11-20T02:17:45.267Z,11.40
2018-11-20T02:18:45.241Z,11.00
2018-11-20T02:19:45.230Z,10.90
2018-11-20T02:20:45.218Z,10.30
2018-11-20T02:21:45.208Z,9.50
2018-11-20T02:22:45.211Z,11.40
2018-11-20T02:23:45.187Z,9.10
2018-11-20T02:24:45.176Z,10.50
2018-11-20T02:25:45.164Z,11.70
2018-11-20T02:26:45.155Z,10.40
2018-11-20T02:27:45.157Z,9.90
2018-11-20T02:28:45.133Z,10.50
2018-11-20T02:29:45.123Z,10.70
2018-11-20T02:30:45.141Z,10.30
2018-11-20T02:31:45.101Z,9.60
2018-11-20T02:32:45.090Z,9.80
2018-11-20T02:33:45.082Z,9.80
2018-11-20T02:34:45.068Z,10.50
2018-11-20T02:35:45.060Z,10.60
2018-11-20T02:36:45.065Z,9.70
2018-11-20T02:37:45.049Z,10.00
2018-11-20T02:38:45.039Z,10.40
2018-11-20T02:39:45.014Z,10.60
2018-11-20T02:40:45.003Z,9.10
2018-11-20T02:41:44.993Z,9.80
2018-11-20T02:42:44.980Z,10.40
2018-11-20T02:43:44.989Z,10.70
2018-11-20T02:44:44.964Z,9.00
2018-11-20T02:45:44.962Z,9.80
2018-11-20T02:46:44.938Z,10.00
2018-11-20T02:47:44.927Z,12.70
2018-11-20T02:48:44.931Z,10.80
2018-11-20T02:49:44.906Z,10.80
2018-11-20T02:50:44.909Z,11.30
2018-11-20T02:51:44.885Z,12.90
2018-11-20T02:52:44.874Z,10.00
2018-11-20T02:53:44.881Z,10.70
2018-11-20T02:54:44.853Z,11.80
2018-11-20T02:55:44.841Z,11.70
2018-11-20T02:56:44.830Z,12.90
2018-11-20T02:57:44.819Z,10.80
2018-11-20T02:58:44.839Z,11.60
2018-11-20T02:59:44.807Z,10.20
2018-11-20T03:00:44.787Z,9.00
2018-11-20T03:01:44.776Z,10.00
2018-11-20T03:02:44.765Z,11.50
2018-11-20T03:03:44.900Z,12.20
2018-11-20T03:04:44.758Z,11.50
2018-11-20T03:05:44.736Z,11.70
2018-11-20T03:06:44.722Z,11.60
2018-11-20T03:07:44.712Z,12.80
2018-11-20T03:08:44.716Z,15.10
2018-11-20T03:09:44.691Z,10.90
2018-11-20T03:10:44.679Z,11.70
2018-11-20T03:11:44.668Z,12.00
2018-11-20T03:12:44.657Z,12.60
2018-11-20T03:13:44.661Z,13.30
2018-11-20T03:14:44.650Z,10.80
2018-11-20T03:15:44.639Z,10.80
2018-11-20T03:16:44.614Z,13.40
2018-11-20T03:17:44.603Z,11.20
2018-11-20T03:18:44.593Z,11.10
2018-11-20T03:19:44.596Z,12.90
2018-11-20T03:20:44.573Z,11.90
2018-11-20T03:21:44.560Z,11.30
2018-11-20T03:22:44.550Z,14.30
2018-11-20T03:23:44.539Z,10.40
2018-11-20T03:24:44.556Z,11.50
2018-11-20T03:25:44.518Z,10.40
2018-11-20T03:26:44.560Z,9.90
2018-11-20T03:27:44.496Z,8.80
2018-11-20T03:28:44.485Z,9.20
2018-11-20T03:29:44.475Z,9.50
2018-11-20T03:30:44.479Z,10.40
2018-11-20T03:31:44.454Z,10.30
2018-11-20T03:32:44.444Z,9.80
2018-11-20T03:33:44.432Z,10.60
2018-11-20T03:34:44.419Z,10.30
2018-11-20T03:35:44.422Z,8.70
2018-11-20T03:36:44.398Z,11.30
2018-11-20T03:37:44.387Z,10.90
2018-11-20T03:38:44.378Z,10.40
2018-11-20T03:39:44.365Z,10.40
2018-11-20T03:40:44.370Z,10.70
2018-11-20T03:41:44.358Z,9.80
2018-11-20T03:42:44.334Z,10.20
2018-11-20T03:43:44.324Z,9.80
2018-11-20T03:44:44.311Z,9.10
2018-11-20T03:45:44.300Z,9.80
2018-11-20T03:46:44.330Z,10.60
2018-11-20T03:47:44.319Z,10.90
2018-11-20T03:48:44.268Z,10.40
2018-11-20T03:49:44.257Z,9.70
2018-11-20T03:50:44.246Z,10.60
2018-11-20T03:51:44.304Z,10.20
2018-11-20T03:52:44.257Z,8.20
2018-11-20T03:53:44.214Z,9.50
2018-11-20T03:54:44.204Z,11.80
2018-11-20T03:55:44.193Z,11.10
2018-11-20T03:56:44.182Z,8.80
2018-11-20T03:57:44.171Z,10.40
2018-11-20T03:58:44.174Z,10.60
2018-11-20T03:59:44.150Z,11.30
2018-11-20T04:00:44.138Z,10.80
2018-11-20T04:01:44.142Z,11.60
2018-11-20T04:02:44.119Z,10.70
2018-11-20T04:03:44.108Z,10.20
2018-11-20T04:04:44.126Z,11.80
2018-11-20T04:05:44.085Z,11.00
2018-11-20T04:06:44.074Z,9.30
2018-11-20T04:07:44.066Z,10.20
2018-11-20T04:08:44.055Z,10.40
2018-11-20T04:09:44.074Z,10.70
2018-11-20T04:10:44.062Z,9.70
2018-11-20T04:11:44.025Z,11.80
2018-11-20T04:12:44.016Z,11.00
2018-11-20T04:13:43.998Z,11.50
2018-11-20T04:14:43.987Z,11.50
2018-11-20T04:15:43.977Z,12.20
2018-11-20T04:16:43.993Z,10.50
2018-11-20T04:17:44.013Z,11.90
2018-11-20T04:18:43.943Z,11.50
2018-11-20T04:19:43.936Z,11.40
2018-11-20T04:20:43.923Z,12.40
2018-11-20T04:21:43.910Z,12.70
2018-11-20T04:22:43.915Z,12.90
2018-11-20T04:23:43.890Z,13.70
2018-11-20T04:24:43.879Z,11.00
2018-11-20T04:25:43.886Z,13.40
2018-11-20T04:26:43.857Z,13.20
2018-11-20T04:27:43.846Z,13.10
2018-11-20T04:28:43.842Z,11.80
2018-11-20T04:29:43.838Z,12.50
2018-11-20T04:30:43.829Z,11.90
2018-11-20T04:31:43.805Z,13.10
2018-11-20T04:32:43.795Z,13.90
2018-11-20T04:33:43.785Z,14.30
2018-11-20T04:34:43.770Z,14.70
2018-11-20T04:35:43.792Z,12.10
2018-11-20T04:36:43.750Z,16.00
2018-11-20T04:37:43.738Z,15.60
2018-11-20T04:38:43.726Z,15.10
2018-11-20T04:39:43.730Z,15.70
2018-11-20T04:40:43.706Z,15.60
2018-11-20T04:41:43.709Z,17.10
2018-11-20T04:42:43.684Z,15.40
2018-11-20T04:43:43.674Z,15.80
2018-11-20T04:44:43.662Z,17.00
2018-11-20T04:45:43.665Z,14.30
2018-11-20T04:46:43.641Z,13.70
2018-11-20T04:47:43.666Z,17.10
2018-11-20T04:48:43.619Z,14.70
2018-11-20T04:49:43.656Z,16.80
2018-11-20T04:50:43.598Z,15.40
2018-11-20T04:51:43.587Z,15.40
2018-11-20T04:52:43.579Z,15.30
2018-11-20T04:53:43.579Z,17.00
2018-11-20T04:54:43.555Z,18.80
2018-11-20T04:55:43.544Z,17.50
2018-11-20T04:56:43.823Z,25.00
2018-11-20T04:57:43.652Z,14.40
2018-11-20T04:58:43.514Z,13.60
2018-11-20T04:59:43.527Z,16.00
2018-11-20T05:00:43.490Z,15.40
2018-11-20T05:01:43.493Z,17.00
2018-11-20T05:02:43.469Z,14.60
2018-11-20T05:03:43.463Z,18.30
2018-11-20T05:04:43.446Z,18.10
2018-11-20T05:05:43.471Z,19.30
2018-11-20T05:06:43.479Z,16.80
2018-11-20T05:07:43.414Z,18.60
2018-11-20T05:08:43.409Z,19.10
2018-11-20T05:09:43.392Z,18.90
2018-11-20T05:10:43.382Z,19.30
2018-11-20T05:11:43.385Z,19.80
2018-11-20T05:12:43.360Z,19.00
2018-11-20T05:13:43.352Z,18.50
2018-11-20T05:14:43.338Z,20.10
2018-11-20T05:15:43.327Z,21.70
2018-11-20T05:16:43.330Z,19.00
2018-11-20T05:17:43.306Z,21.10
2018-11-20T05:18:43.309Z,16.80
2018-11-20T05:19:43.284Z,18.80
2018-11-20T05:20:43.273Z,19.00
2018-11-20T05:21:43.276Z,21.00
2018-11-20T05:22:43.252Z,19.10
2018-11-20T05:23:43.256Z,20.60
2018-11-20T05:24:43.229Z,16.00
2018-11-20T05:25:43.233Z,21.10
2018-11-20T05:26:43.208Z,17.10
2018-11-20T05:27:43.199Z,21.10
2018-11-20T05:28:43.187Z,22.00
2018-11-20T05:29:43.191Z,19.10
2018-11-20T05:30:43.197Z,21.90
2018-11-20T05:31:43.155Z,24.10
2018-11-20T05:32:43.160Z,21.30
2018-11-20T05:33:43.139Z,24.30
2018-11-20T05:34:43.140Z,23.30
2018-11-20T05:35:43.125Z,23.30
2018-11-20T05:36:43.101Z,22.70
2018-11-20T05:37:43.090Z,23.90
2018-11-20T05:38:43.086Z,24.20
2018-11-20T05:39:43.082Z,24.00
2018-11-20T05:40:43.058Z,21.90
2018-11-20T05:41:43.047Z,23.00
2018-11-20T05:42:43.038Z,25.00
2018-11-20T05:43:43.025Z,24.50
2018-11-20T05:44:43.028Z,22.40
2018-11-20T05:45:43.013Z,24.80
2018-11-20T05:46:43.050Z,19.90
2018-11-20T05:47:42.981Z,24.10
2018-11-20T05:48:42.970Z,23.60
2018-11-20T05:49:42.960Z,23.10
2018-11-20T05:50:42.950Z,26.30
2018-11-20T05:51:42.948Z,23.30
2018-11-20T05:52:42.928Z,22.50
2018-11-20T05:53:42.917Z,23.50
2018-11-20T05:54:42.906Z,19.70
2018-11-20T05:55:42.899Z,20.20
2018-11-20T05:56:42.897Z,19.50
2018-11-20T05:57:42.872Z,21.20
2018-11-20T05:58:42.862Z,18.50
2018-11-20T05:59:42.854Z,18.50
2018-11-20T06:00:42.842Z,18.20
2018-11-20T06:01:42.839Z,16.20
2018-11-20T06:02:42.819Z,18.20
2018-11-20T06:03:42.808Z,16.50
2018-11-20T06:04:42.797Z,19.10
2018-11-20T06:05:42.786Z,17.60
2018-11-20T06:06:42.786Z,17.70
2018-11-20T06:07:42.778Z,18.90
2018-11-20T06:08:42.754Z,16.30
2018-11-20T06:09:42.756Z,15.80
2018-11-20T06:10:42.732Z,16.00
2018-11-20T06:11:42.731Z,18.80
2018-11-20T06:12:42.785Z,20.70
2018-11-20T06:13:42.702Z,16.70
2018-11-20T06:14:42.690Z,19.10
2018-11-20T06:15:42.679Z,18.50
2018-11-20T06:16:42.668Z,18.40
2018-11-20T06:17:42.684Z,18.20
2018-11-20T06:18:42.698Z,15.20
2018-11-20T06:19:42.635Z,14.80
2018-11-20T06:20:42.627Z,14.50
2018-11-20T06:21:42.614Z,16.50
2018-11-20T06:22:42.605Z,18.70
2018-11-20T06:23:42.602Z,17.20
2018-11-20T06:24:42.583Z,18.80
2018-11-20T06:25:42.570Z,17.50
2018-11-20T06:26:42.561Z,19.00
2018-11-20T06:27:42.549Z,16.10
2018-11-20T06:28:42.636Z,14.30
2018-11-20T06:29:42.527Z,17.00
2018-11-20T06:30:42.524Z,16.90
2018-11-20T06:31:42.515Z,16.40
2018-11-20T06:32:42.495Z,18.50
2018-11-20T06:33:42.483Z,15.20
2018-11-20T06:34:42.534Z,17.30
2018-11-20T06:35:42.467Z,14.60
2018-11-20T06:36:42.453Z,17.30
2018-11-20T06:37:42.440Z,18.70
2018-11-20T06:38:42.429Z,16.60
2018-11-20T06:39:42.431Z,18.80
2018-11-20T06:40:42.430Z,17.10
2018-11-20T06:41:42.398Z,16.60
2018-11-20T06:42:42.387Z,17.70
2018-11-20T06:43:42.377Z,18.90
2018-11-20T06:44:42.364Z,17.00
2018-11-20T06:45:42.354Z,18.10
2018-11-20T06:46:42.353Z,20.30
2018-11-20T06:47:42.332Z,18.30
2018-11-20T06:48:42.323Z,20.00
2018-11-20T06:49:42.333Z,20.50
2018-11-20T06:50:42.301Z,19.30
2018-11-20T06:51:42.312Z,19.40
2018-11-20T06:52:42.348Z,21.00
2018-11-20T06:53:42.467Z,17.80
2018-11-20T06:54:42.261Z,22.10
2018-11-20T06:55:42.249Z,21.90
2018-11-20T06:56:42.234Z,20.20
2018-11-20T06:57:42.234Z,19.00
2018-11-20T06:58:42.215Z,19.80
2018-11-20T06:59:42.204Z,20.80
2018-11-20T07:00:42.191Z,17.00
2018-11-20T07:01:42.348Z,17.50
2018-11-20T07:02:42.181Z,20.40
2018-11-20T07:03:42.159Z,22.60
2018-11-20T07:04:42.150Z,21.20
2018-11-20T07:05:42.139Z,22.90
2018-11-20T07:06:42.126Z,22.10
2018-11-20T07:07:42.282Z,19.10
2018-11-20T07:08:42.213Z,20.40
2018-11-20T07:09:42.102Z,20.20
2018-11-20T07:10:42.085Z,22.20
2018-11-20T07:11:42.072Z,25.00
2018-11-20T07:12:42.064Z,21.50
2018-11-20T07:13:42.792Z,22.50
2018-11-20T07:14:42.041Z,22.60
2018-11-20T07:15:42.369Z,23.00
2018-11-20T07:16:42.018Z,21.30
2018-11-20T07:17:42.015Z,20.40
2018-11-20T07:18:42.008Z,22.00
2018-11-20T07:19:41.986Z,25.00
2018-11-20T07:20:41.976Z,23.00
2018-11-20T07:21:41.965Z,23.80
2018-11-20T07:22:42.117Z,22.90
2018-11-20T07:23:41.943Z,22.60
2018-11-20T07:24:41.960Z,20.20
2018-11-20T07:25:41.936Z,23.30
2018-11-20T07:26:41.968Z,21.80
2018-11-20T07:27:41.905Z,24.90
2018-11-20T07:28:41.889Z,23.30
2018-11-20T07:29:41.923Z,23.60
2018-11-20T07:30:42.350Z,21.50
2018-11-20T07:31:41.955Z,18.50
2018-11-20T07:32:41.847Z,21.00
2018-11-20T07:33:41.836Z,23.00
2018-11-20T07:34:41.827Z,19.40
2018-11-20T07:35:41.813Z,20.80
2018-11-20T07:36:42.015Z,21.70
2018-11-20T07:37:41.792Z,23.00
2018-11-20T07:38:41.781Z,20.20
2018-11-20T07:39:41.770Z,19.90
2018-11-20T07:40:41.759Z,20.80
2018-11-20T07:41:41.766Z,19.20
2018-11-20T07:42:41.738Z,20.00
2018-11-20T07:43:41.833Z,20.10
2018-11-20T07:44:41.716Z,19.80
2018-11-20T07:45:41.705Z,23.30
2018-11-20T07:46:41.710Z,22.90
2018-11-20T07:47:41.684Z,23.30
2018-11-20T07:48:41.674Z,19.00
2018-11-20T07:49:41.663Z,21.00
2018-11-20T07:50:41.651Z,20.60
2018-11-20T07:51:41.715Z,18.00
2018-11-20T07:52:41.629Z,21.50
2018-11-20T07:53:41.619Z,21.00
2018-11-20T07:54:41.609Z,18.80
2018-11-20T07:55:41.601Z,24.70
2018-11-20T07:56:41.587Z,22.60
2018-11-20T07:57:41.616Z,16.20
2018-11-20T07:58:41.565Z,19.30
2018-11-20T07:59:41.554Z,19.80
2018-11-20T08:00:41.542Z,25.50
2018-11-20T08:01:41.531Z,23.40
2018-11-20T08:02:41.519Z,21.10
2018-11-20T08:03:41.525Z,20.40
2018-11-20T08:04:41.497Z,21.70
2018-11-20T08:05:41.489Z,20.70
2018-11-20T08:06:41.478Z,20.50
2018-11-20T08:07:41.468Z,23.20
2018-11-20T08:08:41.602Z,20.20
2018-11-20T08:09:41.507Z,21.00
2018-11-20T08:10:41.433Z,23.00
2018-11-20T08:11:41.427Z,18.40
2018-11-20T08:12:41.415Z,20.70
2018-11-20T08:13:41.401Z,22.10
2018-11-20T08:14:41.399Z,22.20
2018-11-20T08:15:41.389Z,22.30
2018-11-20T08:16:41.372Z,21.10
2018-11-20T08:17:42.287Z,19.60
2018-11-20T08:18:41.350Z,21.50
2018-11-20T08:19:41.350Z,19.90
2018-11-20T08:20:41.325Z,18.60
2018-11-20T08:21:41.314Z,21.50
2018-11-20T08:22:41.319Z,21.70
2018-11-20T08:23:41.292Z,18.80
2018-11-20T08:24:41.317Z,19.40
2018-11-20T08:25:41.296Z,19.50
2018-11-20T08:26:41.324Z,22.60
2018-11-20T08:27:41.248Z,20.20
2018-11-20T08:28:41.304Z,18.90
2018-11-20T08:29:41.229Z,19.60
2018-11-20T08:30:41.231Z,20.70
2018-11-20T08:31:41.205Z,20.40
2018-11-20T08:32:41.193Z,20.10
2018-11-20T08:33:41.243Z,20.50
2018-11-20T08:34:41.171Z,20.20
2018-11-20T08:35:41.189Z,20.00
2018-11-20T08:36:41.170Z,21.30
2018-11-20T08:37:41.140Z,18.70
2018-11-20T08:38:41.130Z,18.90
2018-11-20T08:39:41.117Z,20.70
2018-11-20T08:40:41.107Z,19.10
2018-11-20T08:41:41.125Z,20.20
2018-11-20T08:42:41.086Z,19.80
2018-11-20T08:43:41.074Z,17.20
2018-11-20T08:44:41.062Z,19.80
2018-11-20T08:45:41.053Z,20.60
2018-11-20T08:46:41.041Z,19.80
2018-11-20T08:47:41.060Z,22.40
2018-11-20T08:48:41.023Z,17.80
2018-11-20T08:49:41.010Z,18.60
2018-11-20T08:50:41.004Z,20.20
2018-11-20T08:51:40.987Z,19.60
2018-11-20T08:52:41.017Z,18.90
2018-11-20T08:53:41.030Z,19.90
2018-11-20T08:54:40.954Z,17.20
2018-11-20T08:55:40.943Z,17.30
2018-11-20T08:56:40.933Z,17.40
2018-11-20T08:57:40.922Z,17.80
2018-11-20T08:58:40.942Z,19.40
2018-11-20T08:59:40.903Z,19.60
2018-11-20T09:00:40.892Z,17.20
2018-11-20T09:01:40.880Z,19.80
2018-11-20T09:02:40.935Z,18.80
2018-11-20T09:03:40.856Z,21.10
2018-11-20T09:04:40.868Z,17.00
2018-11-20T09:05:40.834Z,19.70
2018-11-20T09:06:40.823Z,19.30
2018-11-20T09:07:40.812Z,19.70
2018-11-20T09:08:40.802Z,18.60
2018-11-20T09:09:40.795Z,18.20
2018-11-20T09:10:40.832Z,19.90
2018-11-20T09:11:40.773Z,18.10
2018-11-20T09:12:40.758Z,19.80
2018-11-20T09:13:40.748Z,19.40
2018-11-20T09:14:40.735Z,20.90
2018-11-20T09:15:40.725Z,19.60
2018-11-20T09:16:40.742Z,18.20
2018-11-20T09:17:40.711Z,17.60
2018-11-20T09:18:40.693Z,17.40
2018-11-20T09:19:40.683Z,15.20
2018-11-20T09:20:40.671Z,16.90
2018-11-20T09:21:40.660Z,20.10
2018-11-20T09:22:40.664Z,20.10
2018-11-20T09:23:40.648Z,17.60
2018-11-20T09:24:40.628Z,17.60
2018-11-20T09:25:40.691Z,17.20
2018-11-20T09:26:40.621Z,19.00
2018-11-20T09:27:40.599Z,17.60
2018-11-20T09:28:40.584Z,17.60
2018-11-20T09:29:40.577Z,18.90
2018-11-20T09:30:40.577Z,20.90
2018-11-20T09:31:40.569Z,16.30
2018-11-20T09:32:40.543Z,20.70
2018-11-20T09:33:40.532Z,19.00
2018-11-20T09:34:40.545Z,18.40
2018-11-20T09:35:40.629Z,19.50
2018-11-20T09:36:40.536Z,20.20
2018-11-20T09:37:40.488Z,19.70
2018-11-20T09:38:40.477Z,18.80
2018-11-20T09:39:40.467Z,17.60
2018-11-20T09:40:40.456Z,18.00
2018-11-20T09:41:40.444Z,18.50
2018-11-20T09:42:40.446Z,19.20
2018-11-20T09:43:40.422Z,19.00
2018-11-20T09:44:40.414Z,17.90
2018-11-20T09:45:40.407Z,18.50
2018-11-20T09:46:40.471Z,17.10
2018-11-20T09:47:40.390Z,18.10
2018-11-20T09:48:40.368Z,19.40
2018-11-20T09:49:40.357Z,20.90
2018-11-20T09:50:40.348Z,19.30
2018-11-20T09:51:40.349Z,17.10
2018-11-20T09:52:40.379Z,18.00
2018-11-20T09:53:40.314Z,18.20
2018-11-20T09:54:40.302Z,18.80
2018-11-20T09:55:40.293Z,17.30
2018-11-20T09:56:40.281Z,17.40
2018-11-20T09:57:40.286Z,18.40
2018-11-20T09:58:40.274Z,21.20
2018-11-20T09:59:40.261Z,17.80
